sensor_id;sensor_type;location;lat;lon;timestamp;temperature;humidity
4795;DHT22;2411;47.060;15.064;2024-01-25T00:01:23;10.30;1.00
4795;DHT22;2411;47.060;15.064;2024-01-25T00:03:50;10.70;1.00
4795;DHT22;2411;47.060;15.064;2024-01-25T00:06:18;11.40;1.00
4795;DHT22;2411;47.060;15.064;2024-01-25T00:08:45;11.10;1.00
4795;DHT22;2411;47.060;15.064;2024-01-25T00:11:12;10.60;1.00
4795;DHT22;2411;47.060;15.064;2024-01-25T00:13:39;10.50;1.00
4795;DHT22;2411;47.060;15.064;2024-01-25T00:16:06;10.90;1.00
4795;DHT22;2411;47.060;15.064;2024-01-25T00:18:33;11.00;1.00
4795;DHT22;2411;47.060;15.064;2024-01-25T00:21:01;11.30;1.00
4795;DHT22;2411;47.060;15.064;2024-01-25T00:23:28;11.20;1.00
4795;DHT22;2411;47.060;15.064;2024-01-25T00:25:55;11.30;1.00
4795;DHT22;2411;47.060;15.064;2024-01-25T00:28:26;11.30;1.00
4795;DHT22;2411;47.060;15.064;2024-01-25T00:30:55;11.40;1.00
4795;DHT22;2411;47.060;15.064;2024-01-25T00:33:22;11.20;1.00
4795;DHT22;2411;47.060;15.064;2024-01-25T00:35:50;11.30;1.00
4795;DHT22;2411;47.060;15.064;2024-01-25T00:38:18;11.70;1.00
4795;DHT22;2411;47.060;15.064;2024-01-25T00:40:45;11.80;1.00
4795;DHT22;2411;47.060;15.064;2024-01-25T00:43:14;11.70;1.00
4795;DHT22;2411;47.060;15.064;2024-01-25T00:45:41;11.80;1.00
4795;DHT22;2411;47.060;15.064;2024-01-25T00:48:09;11.60;1.00
4795;DHT22;2411;47.060;15.064;2024-01-25T00:50:38;11.50;1.00
4795;DHT22;2411;47.060;15.064;2024-01-25T00:53:05;11.60;1.00
4795;DHT22;2411;47.060;15.064;2024-01-25T00:55:32;11.80;1.00
4795;DHT22;2411;47.060;15.064;2024-01-25T00:58:00;11.70;1.00
4795;DHT22;2411;47.060;15.064;2024-01-25T01:00:28;11.60;1.00
4795;DHT22;2411;47.060;15.064;2024-01-25T01:02:57;11.60;1.00
4795;DHT22;2411;47.060;15.064;2024-01-25T01:05:26;11.50;1.00
4795;DHT22;2411;47.060;15.064;2024-01-25T01:07:53;11.60;1.00
4795;DHT22;2411;47.060;15.064;2024-01-25T01:10:21;11.70;1.00
4795;DHT22;2411;47.060;15.064;2024-01-25T01:12:48;11.70;1.00
4795;DHT22;2411;47.060;15.064;2024-01-25T01:15:16;11.70;1.00
4795;DHT22;2411;47.060;15.064;2024-01-25T01:17:43;11.60;1.00
4795;DHT22;2411;47.060;15.064;2024-01-25T01:20:10;11.70;1.00
4795;DHT22;2411;47.060;15.064;2024-01-25T01:22:37;11.70;1.00
4795;DHT22;2411;47.060;15.064;2024-01-25T01:25:05;11.70;1.00
4795;DHT22;2411;47.060;15.064;2024-01-25T01:27:32;11.60;1.00
4795;DHT22;2411;47.060;15.064;2024-01-25T01:29:59;11.80;1.00
4795;DHT22;2411;47.060;15.064;2024-01-25T01:32:26;11.80;1.00
4795;DHT22;2411;47.060;15.064;2024-01-25T01:34:53;11.60;1.00
4795;DHT22;2411;47.060;15.064;2024-01-25T01:37:20;11.50;1.00
4795;DHT22;2411;47.060;15.064;2024-01-25T01:39:48;11.60;1.00
4795;DHT22;2411;47.060;15.064;2024-01-25T01:42:15;11.70;1.00
4795;DHT22;2411;47.060;15.064;2024-01-25T01:44:42;11.90;1.00
4795;DHT22;2411;47.060;15.064;2024-01-25T01:47:09;11.70;1.00
4795;DHT22;2411;47.060;15.064;2024-01-25T01:49:36;11.50;1.00
4795;DHT22;2411;47.060;15.064;2024-01-25T01:52:05;11.20;1.00
4795;DHT22;2411;47.060;15.064;2024-01-25T01:54:32;11.40;1.00
4795;DHT22;2411;47.060;15.064;2024-01-25T01:57:01;11.50;1.00
4795;DHT22;2411;47.060;15.064;2024-01-25T01:59:29;11.70;1.00
4795;DHT22;2411;47.060;15.064;2024-01-25T02:01:56;11.50;1.00
4795;DHT22;2411;47.060;15.064;2024-01-25T02:04:23;11.40;1.00
4795;DHT22;2411;47.060;15.064;2024-01-25T02:06:51;11.40;1.00
4795;DHT22;2411;47.060;15.064;2024-01-25T02:09:18;11.60;1.00
4795;DHT22;2411;47.060;15.064;2024-01-25T02:11:45;11.60;1.00
4795;DHT22;2411;47.060;15.064;2024-01-25T02:14:12;11.50;1.00
4795;DHT22;2411;47.060;15.064;2024-01-25T02:16:41;11.50;1.00
4795;DHT22;2411;47.060;15.064;2024-01-25T02:19:12;11.40;1.00
4795;DHT22;2411;47.060;15.064;2024-01-25T02:21:40;11.50;1.00
4795;DHT22;2411;47.060;15.064;2024-01-25T02:24:08;11.70;1.00
4795;DHT22;2411;47.060;15.064;2024-01-25T02:26:36;11.90;1.00
4795;DHT22;2411;47.060;15.064;2024-01-25T02:29:03;11.80;1.00
4795;DHT22;2411;47.060;15.064;2024-01-25T02:31:31;11.50;1.00
4795;DHT22;2411;47.060;15.064;2024-01-25T02:33:58;11.60;1.00
4795;DHT22;2411;47.060;15.064;2024-01-25T02:36:26;11.60;1.00
4795;DHT22;2411;47.060;15.064;2024-01-25T02:38:53;11.50;1.00
4795;DHT22;2411;47.060;15.064;2024-01-25T02:41:20;11.40;1.00
4795;DHT22;2411;47.060;15.064;2024-01-25T02:43:47;11.50;1.00
4795;DHT22;2411;47.060;15.064;2024-01-25T02:46:14;11.40;1.00
4795;DHT22;2411;47.060;15.064;2024-01-25T02:48:41;11.60;1.00
4795;DHT22;2411;47.060;15.064;2024-01-25T02:51:08;11.30;1.00
4795;DHT22;2411;47.060;15.064;2024-01-25T02:53:35;11.30;1.00
4795;DHT22;2411;47.060;15.064;2024-01-25T02:56:03;11.20;1.00
4795;DHT22;2411;47.060;15.064;2024-01-25T02:58:30;11.20;1.00
4795;DHT22;2411;47.060;15.064;2024-01-25T03:00:57;11.20;1.00
4795;DHT22;2411;47.060;15.064;2024-01-25T03:03:24;11.20;1.00
4795;DHT22;2411;47.060;15.064;2024-01-25T03:05:52;11.10;1.00
4795;DHT22;2411;47.060;15.064;2024-01-25T03:08:19;11.20;1.00
4795;DHT22;2411;47.060;15.064;2024-01-25T03:10:46;11.00;1.00
4795;DHT22;2411;47.060;15.064;2024-01-25T03:13:16;11.00;1.00
4795;DHT22;2411;47.060;15.064;2024-01-25T03:15:43;10.90;1.00
4795;DHT22;2411;47.060;15.064;2024-01-25T03:18:11;10.90;1.00
4795;DHT22;2411;47.060;15.064;2024-01-25T03:20:38;10.90;1.00
4795;DHT22;2411;47.060;15.064;2024-01-25T03:23:05;11.00;1.00
4795;DHT22;2411;47.060;15.064;2024-01-25T03:25:32;10.90;1.00
4795;DHT22;2411;47.060;15.064;2024-01-25T03:28:00;10.80;1.00
4795;DHT22;2411;47.060;15.064;2024-01-25T03:30:27;10.70;1.00
4795;DHT22;2411;47.060;15.064;2024-01-25T03:32:54;10.60;1.00
4795;DHT22;2411;47.060;15.064;2024-01-25T03:35:21;10.80;1.00
4795;DHT22;2411;47.060;15.064;2024-01-25T03:37:48;10.70;1.00
4795;DHT22;2411;47.060;15.064;2024-01-25T03:40:15;10.60;1.00
4795;DHT22;2411;47.060;15.064;2024-01-25T03:42:43;10.50;1.00
4795;DHT22;2411;47.060;15.064;2024-01-25T03:45:28;10.40;1.00
4795;DHT22;2411;47.060;15.064;2024-01-25T03:47:57;10.20;1.00
4795;DHT22;2411;47.060;15.064;2024-01-25T03:50:24;10.10;1.00
4795;DHT22;2411;47.060;15.064;2024-01-25T03:52:51;10.10;1.00
4795;DHT22;2411;47.060;15.064;2024-01-25T03:55:18;10.10;1.00
4795;DHT22;2411;47.060;15.064;2024-01-25T03:57:45;10.10;1.00
4795;DHT22;2411;47.060;15.064;2024-01-25T04:00:13;10.10;1.00
4795;DHT22;2411;47.060;15.064;2024-01-25T04:02:40;9.90;1.00
4795;DHT22;2411;47.060;15.064;2024-01-25T04:05:07;9.90;1.00
4795;DHT22;2411;47.060;15.064;2024-01-25T04:07:35;9.90;1.00
4795;DHT22;2411;47.060;15.064;2024-01-25T04:10:03;9.80;1.00
4795;DHT22;2411;47.060;15.064;2024-01-25T04:12:30;9.70;1.00
4795;DHT22;2411;47.060;15.064;2024-01-25T04:14:58;9.60;1.00
4795;DHT22;2411;47.060;15.064;2024-01-25T04:17:25;9.70;1.00
4795;DHT22;2411;47.060;15.064;2024-01-25T04:19:52;9.60;1.00
4795;DHT22;2411;47.060;15.064;2024-01-25T04:22:19;9.40;1.00
4795;DHT22;2411;47.060;15.064;2024-01-25T04:24:47;9.30;1.00
4795;DHT22;2411;47.060;15.064;2024-01-25T04:27:16;9.20;1.00
4795;DHT22;2411;47.060;15.064;2024-01-25T04:29:43;9.20;1.00
4795;DHT22;2411;47.060;15.064;2024-01-25T04:32:12;9.00;1.00
4795;DHT22;2411;47.060;15.064;2024-01-25T04:34:39;8.90;1.00
4795;DHT22;2411;47.060;15.064;2024-01-25T04:37:06;8.80;1.00
4795;DHT22;2411;47.060;15.064;2024-01-25T04:39:34;8.70;1.00
4795;DHT22;2411;47.060;15.064;2024-01-25T04:42:01;8.80;1.00
4795;DHT22;2411;47.060;15.064;2024-01-25T04:44:28;8.70;1.00
4795;DHT22;2411;47.060;15.064;2024-01-25T04:46:55;8.70;1.00
4795;DHT22;2411;47.060;15.064;2024-01-25T04:49:23;8.70;1.00
4795;DHT22;2411;47.060;15.064;2024-01-25T04:51:50;8.60;1.00
4795;DHT22;2411;47.060;15.064;2024-01-25T04:54:17;8.60;1.00
4795;DHT22;2411;47.060;15.064;2024-01-25T04:56:44;8.50;1.00
4795;DHT22;2411;47.060;15.064;2024-01-25T04:59:12;8.60;1.00
4795;DHT22;2411;47.060;15.064;2024-01-25T05:01:39;8.50;1.00
4795;DHT22;2411;47.060;15.064;2024-01-25T05:04:06;8.40;1.00
4795;DHT22;2411;47.060;15.064;2024-01-25T05:06:33;8.40;1.00
4795;DHT22;2411;47.060;15.064;2024-01-25T05:09:00;8.50;1.00
4795;DHT22;2411;47.060;15.064;2024-01-25T05:11:27;8.40;1.00
4795;DHT22;2411;47.060;15.064;2024-01-25T05:13:55;8.30;1.00
4795;DHT22;2411;47.060;15.064;2024-01-25T05:16:22;8.20;1.00
4795;DHT22;2411;47.060;15.064;2024-01-25T05:18:49;8.20;1.00
4795;DHT22;2411;47.060;15.064;2024-01-25T05:21:17;8.10;1.00
4795;DHT22;2411;47.060;15.064;2024-01-25T05:23:44;8.10;1.00
4795;DHT22;2411;47.060;15.064;2024-01-25T05:26:11;8.10;1.00
4795;DHT22;2411;47.060;15.064;2024-01-25T05:28:38;8.00;1.00
4795;DHT22;2411;47.060;15.064;2024-01-25T05:31:05;8.00;1.00
4795;DHT22;2411;47.060;15.064;2024-01-25T05:33:36;8.00;1.00
4795;DHT22;2411;47.060;15.064;2024-01-25T05:36:04;8.20;1.00
4795;DHT22;2411;47.060;15.064;2024-01-25T05:38:31;8.10;1.00
4795;DHT22;2411;47.060;15.064;2024-01-25T05:40:59;8.10;1.00
4795;DHT22;2411;47.060;15.064;2024-01-25T05:43:26;8.10;1.00
4795;DHT22;2411;47.060;15.064;2024-01-25T05:45:53;8.10;1.00
4795;DHT22;2411;47.060;15.064;2024-01-25T05:48:20;8.00;1.00
4795;DHT22;2411;47.060;15.064;2024-01-25T05:50:47;7.90;1.00
4795;DHT22;2411;47.060;15.064;2024-01-25T05:53:15;7.80;1.00
4795;DHT22;2411;47.060;15.064;2024-01-25T05:55:45;7.90;1.00
4795;DHT22;2411;47.060;15.064;2024-01-25T05:58:13;8.00;1.00
4795;DHT22;2411;47.060;15.064;2024-01-25T06:00:40;8.00;1.00
4795;DHT22;2411;47.060;15.064;2024-01-25T06:03:07;8.00;1.00
4795;DHT22;2411;47.060;15.064;2024-01-25T06:05:34;8.00;1.00
4795;DHT22;2411;47.060;15.064;2024-01-25T06:08:01;7.90;1.00
4795;DHT22;2411;47.060;15.064;2024-01-25T06:10:29;7.70;1.00
4795;DHT22;2411;47.060;15.064;2024-01-25T06:12:56;7.90;1.00
4795;DHT22;2411;47.060;15.064;2024-01-25T06:15:23;7.80;1.00
4795;DHT22;2411;47.060;15.064;2024-01-25T06:17:50;7.80;1.00
4795;DHT22;2411;47.060;15.064;2024-01-25T06:20:17;7.80;1.00
4795;DHT22;2411;47.060;15.064;2024-01-25T06:22:45;7.80;1.00
4795;DHT22;2411;47.060;15.064;2024-01-25T06:25:12;7.80;1.00
4795;DHT22;2411;47.060;15.064;2024-01-25T06:27:39;7.70;1.00
4795;DHT22;2411;47.060;15.064;2024-01-25T06:30:07;7.60;1.00
4795;DHT22;2411;47.060;15.064;2024-01-25T06:32:34;7.60;1.00
4795;DHT22;2411;47.060;15.064;2024-01-25T06:35:01;7.70;1.00
4795;DHT22;2411;47.060;15.064;2024-01-25T06:37:28;7.50;1.00
4795;DHT22;2411;47.060;15.064;2024-01-25T06:39:55;7.80;1.00
4795;DHT22;2411;47.060;15.064;2024-01-25T06:42:23;7.70;1.00
4795;DHT22;2411;47.060;15.064;2024-01-25T06:44:50;7.70;1.00
4795;DHT22;2411;47.060;15.064;2024-01-25T06:47:17;7.70;1.00
4795;DHT22;2411;47.060;15.064;2024-01-25T06:49:47;7.60;1.00
4795;DHT22;2411;47.060;15.064;2024-01-25T06:52:18;7.50;1.00
4795;DHT22;2411;47.060;15.064;2024-01-25T06:54:46;7.40;1.00
4795;DHT22;2411;47.060;15.064;2024-01-25T06:57:13;7.50;1.00
4795;DHT22;2411;47.060;15.064;2024-01-25T06:59:43;7.30;1.00
4795;DHT22;2411;47.060;15.064;2024-01-25T07:02:11;7.30;1.00
4795;DHT22;2411;47.060;15.064;2024-01-25T07:04:39;7.40;1.00
4795;DHT22;2411;47.060;15.064;2024-01-25T07:07:09;7.40;1.00
4795;DHT22;2411;47.060;15.064;2024-01-25T07:09:36;7.40;1.00
4795;DHT22;2411;47.060;15.064;2024-01-25T07:12:03;7.50;1.00
4795;DHT22;2411;47.060;15.064;2024-01-25T07:14:31;7.50;1.00
4795;DHT22;2411;47.060;15.064;2024-01-25T07:16:58;7.50;1.00
4795;DHT22;2411;47.060;15.064;2024-01-25T07:19:25;7.50;1.00
4795;DHT22;2411;47.060;15.064;2024-01-25T07:21:52;7.70;1.00
4795;DHT22;2411;47.060;15.064;2024-01-25T07:24:19;7.80;1.00
4795;DHT22;2411;47.060;15.064;2024-01-25T07:26:46;7.90;1.00
4795;DHT22;2411;47.060;15.064;2024-01-25T07:29:14;8.00;1.00
4795;DHT22;2411;47.060;15.064;2024-01-25T07:31:41;8.00;1.00
4795;DHT22;2411;47.060;15.064;2024-01-25T07:34:08;8.10;1.00
4795;DHT22;2411;47.060;15.064;2024-01-25T07:36:36;8.30;1.00
4795;DHT22;2411;47.060;15.064;2024-01-25T07:39:03;8.50;1.00
4795;DHT22;2411;47.060;15.064;2024-01-25T07:41:30;8.50;1.00
4795;DHT22;2411;47.060;15.064;2024-01-25T07:43:57;8.60;1.00
4795;DHT22;2411;47.060;15.064;2024-01-25T07:46:24;8.60;1.00
4795;DHT22;2411;47.060;15.064;2024-01-25T07:48:52;8.50;1.00
4795;DHT22;2411;47.060;15.064;2024-01-25T07:51:19;8.50;1.00
4795;DHT22;2411;47.060;15.064;2024-01-25T07:53:46;8.70;1.00
4795;DHT22;2411;47.060;15.064;2024-01-25T07:56:13;8.60;1.00
4795;DHT22;2411;47.060;15.064;2024-01-25T07:58:40;8.60;1.00
4795;DHT22;2411;47.060;15.064;2024-01-25T08:01:08;8.60;1.00
4795;DHT22;2411;47.060;15.064;2024-01-25T08:03:36;8.50;1.00
4795;DHT22;2411;47.060;15.064;2024-01-25T08:06:04;8.50;1.00
4795;DHT22;2411;47.060;15.064;2024-01-25T08:08:31;8.50;1.00
4795;DHT22;2411;47.060;15.064;2024-01-25T08:10:58;8.50;1.00
4795;DHT22;2411;47.060;15.064;2024-01-25T08:13:26;8.50;1.00
4795;DHT22;2411;47.060;15.064;2024-01-25T08:15:58;8.60;1.00
4795;DHT22;2411;47.060;15.064;2024-01-25T08:18:26;8.80;1.00
4795;DHT22;2411;47.060;15.064;2024-01-25T08:20:56;8.70;1.00
4795;DHT22;2411;47.060;15.064;2024-01-25T08:23:23;8.70;1.00
4795;DHT22;2411;47.060;15.064;2024-01-25T08:25:50;8.80;1.00
4795;DHT22;2411;47.060;15.064;2024-01-25T08:28:18;8.90;1.00
4795;DHT22;2411;47.060;15.064;2024-01-25T08:30:45;9.00;1.00
4795;DHT22;2411;47.060;15.064;2024-01-25T08:33:13;9.00;1.00
4795;DHT22;2411;47.060;15.064;2024-01-25T08:35:40;9.20;1.00
4795;DHT22;2411;47.060;15.064;2024-01-25T08:38:08;9.10;1.00
4795;DHT22;2411;47.060;15.064;2024-01-25T08:40:35;9.20;1.00
4795;DHT22;2411;47.060;15.064;2024-01-25T08:43:02;9.30;1.00
4795;DHT22;2411;47.060;15.064;2024-01-25T08:45:31;9.40;1.00
4795;DHT22;2411;47.060;15.064;2024-01-25T08:47:59;9.40;1.00
4795;DHT22;2411;47.060;15.064;2024-01-25T08:50:27;9.30;1.00
4795;DHT22;2411;47.060;15.064;2024-01-25T08:52:54;9.40;1.00
4795;DHT22;2411;47.060;15.064;2024-01-25T08:55:22;9.30;1.00
4795;DHT22;2411;47.060;15.064;2024-01-25T08:57:49;9.40;1.00
4795;DHT22;2411;47.060;15.064;2024-01-25T09:00:17;9.50;1.00
4795;DHT22;2411;47.060;15.064;2024-01-25T09:02:45;9.40;1.00
4795;DHT22;2411;47.060;15.064;2024-01-25T09:05:12;9.50;1.00
4795;DHT22;2411;47.060;15.064;2024-01-25T09:07:40;9.70;1.00
4795;DHT22;2411;47.060;15.064;2024-01-25T09:10:08;9.70;1.00
4795;DHT22;2411;47.060;15.064;2024-01-25T09:12:38;9.70;1.00
4795;DHT22;2411;47.060;15.064;2024-01-25T09:15:06;9.70;1.00
4795;DHT22;2411;47.060;15.064;2024-01-25T09:17:35;9.70;1.00
4795;DHT22;2411;47.060;15.064;2024-01-25T09:20:03;9.70;1.00
4795;DHT22;2411;47.060;15.064;2024-01-25T09:22:31;9.80;1.00
4795;DHT22;2411;47.060;15.064;2024-01-25T09:24:58;9.80;1.00
4795;DHT22;2411;47.060;15.064;2024-01-25T09:27:26;9.80;1.00
4795;DHT22;2411;47.060;15.064;2024-01-25T09:29:53;9.80;1.00
4795;DHT22;2411;47.060;15.064;2024-01-25T09:32:20;9.90;1.00
4795;DHT22;2411;47.060;15.064;2024-01-25T09:34:47;10.00;1.00
4795;DHT22;2411;47.060;15.064;2024-01-25T09:37:15;9.90;1.00
4795;DHT22;2411;47.060;15.064;2024-01-25T09:39:44;10.20;1.00
4795;DHT22;2411;47.060;15.064;2024-01-25T09:42:12;10.40;1.00
4795;DHT22;2411;47.060;15.064;2024-01-25T09:44:40;10.50;1.00
4795;DHT22;2411;47.060;15.064;2024-01-25T09:47:08;10.60;1.00
4795;DHT22;2411;47.060;15.064;2024-01-25T09:49:37;10.60;1.00
4795;DHT22;2411;47.060;15.064;2024-01-25T09:52:05;10.60;1.00
4795;DHT22;2411;47.060;15.064;2024-01-25T09:54:36;10.60;1.00
4795;DHT22;2411;47.060;15.064;2024-01-25T09:57:06;10.60;1.00
4795;DHT22;2411;47.060;15.064;2024-01-25T09:59:34;10.70;1.00
4795;DHT22;2411;47.060;15.064;2024-01-25T10:02:01;10.70;1.00
4795;DHT22;2411;47.060;15.064;2024-01-25T10:04:29;10.60;1.00
4795;DHT22;2411;47.060;15.064;2024-01-25T10:06:57;10.60;1.00
4795;DHT22;2411;47.060;15.064;2024-01-25T10:09:25;10.60;1.00
4795;DHT22;2411;47.060;15.064;2024-01-25T10:11:52;10.60;1.00
4795;DHT22;2411;47.060;15.064;2024-01-25T10:14:36;10.60;1.00
4795;DHT22;2411;47.060;15.064;2024-01-25T10:17:03;10.70;1.00
4795;DHT22;2411;47.060;15.064;2024-01-25T10:19:31;10.70;1.00
4795;DHT22;2411;47.060;15.064;2024-01-25T10:21:58;10.80;1.00
4795;DHT22;2411;47.060;15.064;2024-01-25T10:24:27;10.70;1.00
4795;DHT22;2411;47.060;15.064;2024-01-25T10:26:55;10.80;1.00
4795;DHT22;2411;47.060;15.064;2024-01-25T10:29:22;10.90;1.00
4795;DHT22;2411;47.060;15.064;2024-01-25T10:31:52;10.90;1.00
4795;DHT22;2411;47.060;15.064;2024-01-25T10:34:20;10.90;1.00
4795;DHT22;2411;47.060;15.064;2024-01-25T10:36:50;11.10;1.00
4795;DHT22;2411;47.060;15.064;2024-01-25T10:39:21;11.00;1.00
4795;DHT22;2411;47.060;15.064;2024-01-25T10:41:49;11.20;1.00
4795;DHT22;2411;47.060;15.064;2024-01-25T10:44:18;11.10;1.00
4795;DHT22;2411;47.060;15.064;2024-01-25T10:46:49;11.10;1.00
4795;DHT22;2411;47.060;15.064;2024-01-25T10:49:17;11.10;1.00
4795;DHT22;2411;47.060;15.064;2024-01-25T10:51:45;11.10;1.00
4795;DHT22;2411;47.060;15.064;2024-01-25T10:54:14;11.20;1.00
4795;DHT22;2411;47.060;15.064;2024-01-25T10:56:42;11.10;1.00
4795;DHT22;2411;47.060;15.064;2024-01-25T10:59:10;11.10;1.00
4795;DHT22;2411;47.060;15.064;2024-01-25T11:01:37;11.20;1.00
4795;DHT22;2411;47.060;15.064;2024-01-25T11:04:16;11.10;1.00
4795;DHT22;2411;47.060;15.064;2024-01-25T11:06:47;11.10;1.00
4795;DHT22;2411;47.060;15.064;2024-01-25T11:09:19;11.20;1.00
4795;DHT22;2411;47.060;15.064;2024-01-25T11:11:48;11.10;1.00
4795;DHT22;2411;47.060;15.064;2024-01-25T11:14:19;11.10;1.00
4795;DHT22;2411;47.060;15.064;2024-01-25T11:16:46;11.20;1.00
4795;DHT22;2411;47.060;15.064;2024-01-25T11:19:19;11.10;1.00
4795;DHT22;2411;47.060;15.064;2024-01-25T11:21:49;11.10;1.00
4795;DHT22;2411;47.060;15.064;2024-01-25T11:24:24;11.20;1.00
4795;DHT22;2411;47.060;15.064;2024-01-25T11:26:55;11.20;1.00
4795;DHT22;2411;47.060;15.064;2024-01-25T11:29:22;11.10;1.00
4795;DHT22;2411;47.060;15.064;2024-01-25T11:31:51;11.20;1.00
4795;DHT22;2411;47.060;15.064;2024-01-25T11:34:19;11.10;1.00
4795;DHT22;2411;47.060;15.064;2024-01-25T11:36:48;11.20;1.00
4795;DHT22;2411;47.060;15.064;2024-01-25T11:39:16;11.10;1.00
4795;DHT22;2411;47.060;15.064;2024-01-25T11:41:44;11.10;1.00
4795;DHT22;2411;47.060;15.064;2024-01-25T11:44:12;11.10;1.00
4795;DHT22;2411;47.060;15.064;2024-01-25T11:46:40;11.20;1.00
4795;DHT22;2411;47.060;15.064;2024-01-25T11:49:08;11.10;1.00
4795;DHT22;2411;47.060;15.064;2024-01-25T11:51:35;11.10;1.00
4795;DHT22;2411;47.060;15.064;2024-01-25T11:54:03;11.20;1.00
4795;DHT22;2411;47.060;15.064;2024-01-25T11:56:36;11.10;1.00
4795;DHT22;2411;47.060;15.064;2024-01-25T11:59:05;11.20;1.00
4795;DHT22;2411;47.060;15.064;2024-01-25T12:01:32;11.20;1.00
4795;DHT22;2411;47.060;15.064;2024-01-25T12:04:00;11.30;1.00
4795;DHT22;2411;47.060;15.064;2024-01-25T12:06:29;11.20;1.00
4795;DHT22;2411;47.060;15.064;2024-01-25T12:09:06;11.20;1.00
4795;DHT22;2411;47.060;15.064;2024-01-25T12:11:35;11.20;1.00
4795;DHT22;2411;47.060;15.064;2024-01-25T12:14:02;11.20;1.00
4795;DHT22;2411;47.060;15.064;2024-01-25T12:16:29;11.30;1.00
4795;DHT22;2411;47.060;15.064;2024-01-25T12:19:00;11.20;1.00
4795;DHT22;2411;47.060;15.064;2024-01-25T12:21:27;11.30;1.00
4795;DHT22;2411;47.060;15.064;2024-01-25T12:23:54;11.30;1.00
4795;DHT22;2411;47.060;15.064;2024-01-25T12:26:21;11.30;1.00
4795;DHT22;2411;47.060;15.064;2024-01-25T12:28:48;11.30;1.00
4795;DHT22;2411;47.060;15.064;2024-01-25T12:31:19;11.30;1.00
4795;DHT22;2411;47.060;15.064;2024-01-25T12:33:46;11.30;1.00
4795;DHT22;2411;47.060;15.064;2024-01-25T12:36:13;11.30;1.00
4795;DHT22;2411;47.060;15.064;2024-01-25T12:38:41;11.30;1.00
4795;DHT22;2411;47.060;15.064;2024-01-25T12:41:08;11.40;1.00
4795;DHT22;2411;47.060;15.064;2024-01-25T12:43:35;11.40;1.00
4795;DHT22;2411;47.060;15.064;2024-01-25T12:46:03;11.50;1.00
4795;DHT22;2411;47.060;15.064;2024-01-25T12:48:48;11.40;1.00
4795;DHT22;2411;47.060;15.064;2024-01-25T12:51:15;11.40;1.00
4795;DHT22;2411;47.060;15.064;2024-01-25T12:53:43;11.50;1.00
4795;DHT22;2411;47.060;15.064;2024-01-25T12:56:10;11.50;1.00
4795;DHT22;2411;47.060;15.064;2024-01-25T12:58:40;11.60;1.00
4795;DHT22;2411;47.060;15.064;2024-01-25T13:01:07;11.50;1.00
4795;DHT22;2411;47.060;15.064;2024-01-25T13:03:34;11.50;1.00
4795;DHT22;2411;47.060;15.064;2024-01-25T13:06:05;11.60;1.00
4795;DHT22;2411;47.060;15.064;2024-01-25T13:08:32;11.60;1.00
4795;DHT22;2411;47.060;15.064;2024-01-25T13:10:59;11.60;1.00
4795;DHT22;2411;47.060;15.064;2024-01-25T13:13:26;11.50;1.00
4795;DHT22;2411;47.060;15.064;2024-01-25T13:15:53;11.60;1.00
4795;DHT22;2411;47.060;15.064;2024-01-25T13:18:21;11.60;1.00
4795;DHT22;2411;47.060;15.064;2024-01-25T13:20:48;11.60;1.00
4795;DHT22;2411;47.060;15.064;2024-01-25T13:23:15;11.60;1.00
4795;DHT22;2411;47.060;15.064;2024-01-25T13:25:42;11.80;1.00
4795;DHT22;2411;47.060;15.064;2024-01-25T13:28:09;11.80;1.00
4795;DHT22;2411;47.060;15.064;2024-01-25T13:30:39;11.70;1.00
4795;DHT22;2411;47.060;15.064;2024-01-25T13:33:07;11.80;1.00
4795;DHT22;2411;47.060;15.064;2024-01-25T13:35:34;11.80;1.00
4795;DHT22;2411;47.060;15.064;2024-01-25T13:38:01;11.80;1.00
4795;DHT22;2411;47.060;15.064;2024-01-25T13:40:29;11.80;1.00
4795;DHT22;2411;47.060;15.064;2024-01-25T13:42:56;11.70;1.00
4795;DHT22;2411;47.060;15.064;2024-01-25T13:45:23;11.80;1.00
4795;DHT22;2411;47.060;15.064;2024-01-25T13:47:50;11.80;1.00
4795;DHT22;2411;47.060;15.064;2024-01-25T13:50:17;11.80;1.00
4795;DHT22;2411;47.060;15.064;2024-01-25T13:52:44;11.60;1.00
4795;DHT22;2411;47.060;15.064;2024-01-25T13:55:12;11.60;1.00
4795;DHT22;2411;47.060;15.064;2024-01-25T13:57:39;11.60;1.00
4795;DHT22;2411;47.060;15.064;2024-01-25T14:00:06;11.50;1.00
4795;DHT22;2411;47.060;15.064;2024-01-25T14:02:40;11.50;1.00
4795;DHT22;2411;47.060;15.064;2024-01-25T14:05:12;11.50;1.00
4795;DHT22;2411;47.060;15.064;2024-01-25T14:07:39;11.50;1.00
4795;DHT22;2411;47.060;15.064;2024-01-25T14:10:06;11.50;1.00
4795;DHT22;2411;47.060;15.064;2024-01-25T14:12:34;11.50;1.00
4795;DHT22;2411;47.060;15.064;2024-01-25T14:15:01;11.50;1.00
4795;DHT22;2411;47.060;15.064;2024-01-25T14:17:29;11.50;1.00
4795;DHT22;2411;47.060;15.064;2024-01-25T14:19:56;11.40;1.00
4795;DHT22;2411;47.060;15.064;2024-01-25T14:22:24;11.40;1.00
4795;DHT22;2411;47.060;15.064;2024-01-25T14:24:58;11.30;1.00
4795;DHT22;2411;47.060;15.064;2024-01-25T14:27:26;11.20;1.00
4795;DHT22;2411;47.060;15.064;2024-01-25T14:29:54;11.20;1.00
4795;DHT22;2411;47.060;15.064;2024-01-25T14:32:22;11.20;1.00
4795;DHT22;2411;47.060;15.064;2024-01-25T14:34:50;11.30;1.00
4795;DHT22;2411;47.060;15.064;2024-01-25T14:37:18;11.20;1.00
4795;DHT22;2411;47.060;15.064;2024-01-25T14:39:45;11.20;1.00
4795;DHT22;2411;47.060;15.064;2024-01-25T14:42:32;11.20;1.00
4795;DHT22;2411;47.060;15.064;2024-01-25T14:44:59;11.20;1.00
4795;DHT22;2411;47.060;15.064;2024-01-25T14:47:26;11.10;1.00
4795;DHT22;2411;47.060;15.064;2024-01-25T14:49:53;11.00;1.00
4795;DHT22;2411;47.060;15.064;2024-01-25T14:52:21;10.90;1.00
4795;DHT22;2411;47.060;15.064;2024-01-25T14:54:48;10.90;1.00
4795;DHT22;2411;47.060;15.064;2024-01-25T14:57:15;10.80;1.00
4795;DHT22;2411;47.060;15.064;2024-01-25T14:59:42;10.80;1.00
4795;DHT22;2411;47.060;15.064;2024-01-25T15:02:09;10.70;1.00
4795;DHT22;2411;47.060;15.064;2024-01-25T15:04:37;10.60;1.00
4795;DHT22;2411;47.060;15.064;2024-01-25T15:07:04;10.60;1.00
4795;DHT22;2411;47.060;15.064;2024-01-25T15:09:32;10.50;1.00
4795;DHT22;2411;47.060;15.064;2024-01-25T15:11:59;10.30;1.00
4795;DHT22;2411;47.060;15.064;2024-01-25T15:14:27;10.40;1.00
4795;DHT22;2411;47.060;15.064;2024-01-25T15:16:54;10.40;1.00
4795;DHT22;2411;47.060;15.064;2024-01-25T15:19:21;10.20;1.00
4795;DHT22;2411;47.060;15.064;2024-01-25T15:21:48;10.00;1.00
4795;DHT22;2411;47.060;15.064;2024-01-25T15:24:16;9.60;1.00
4795;DHT22;2411;47.060;15.064;2024-01-25T15:26:43;9.50;1.00
4795;DHT22;2411;47.060;15.064;2024-01-25T15:29:10;9.40;1.00
4795;DHT22;2411;47.060;15.064;2024-01-25T15:31:38;9.50;1.00
4795;DHT22;2411;47.060;15.064;2024-01-25T15:34:05;9.60;1.00
4795;DHT22;2411;47.060;15.064;2024-01-25T15:36:33;9.60;1.00
4795;DHT22;2411;47.060;15.064;2024-01-25T15:39:02;9.50;1.00
4795;DHT22;2411;47.060;15.064;2024-01-25T15:41:30;9.30;1.00
4795;DHT22;2411;47.060;15.064;2024-01-25T15:43:57;9.20;1.00
4795;DHT22;2411;47.060;15.064;2024-01-25T15:46:24;9.10;1.00
4795;DHT22;2411;47.060;15.064;2024-01-25T15:48:51;9.10;1.00
4795;DHT22;2411;47.060;15.064;2024-01-25T15:51:22;8.80;1.00
4795;DHT22;2411;47.060;15.064;2024-01-25T15:53:50;8.90;1.00
4795;DHT22;2411;47.060;15.064;2024-01-25T15:56:17;9.40;1.00
4795;DHT22;2411;47.060;15.064;2024-01-25T15:58:44;9.60;1.00
4795;DHT22;2411;47.060;15.064;2024-01-25T16:01:11;9.50;1.00
4795;DHT22;2411;47.060;15.064;2024-01-25T16:03:39;9.20;1.00
4795;DHT22;2411;47.060;15.064;2024-01-25T16:06:06;8.80;1.00
4795;DHT22;2411;47.060;15.064;2024-01-25T16:08:34;8.50;1.00
4795;DHT22;2411;47.060;15.064;2024-01-25T16:11:04;8.60;1.00